Accueil
METAR-TAF:

METAR-TAF

Aéroports :

Aéroport international de Curaçao

Curaçao, Antilles néerlandaises

latitude: 12-12N, longitude: 068-58W, altitude: 9 m

Observation

Le bulletin a été fait il y a 55 minutes, à 01:00 UTC
Vent 8 kt de nord-est
Température 28°C
Humidité 70%
Pression 1009 hPa
Visibilité 10 km ou plus
pas de nuages en-dessous de 1500 mètres et pas de cumulonimbus.

METAR: TNCC 180100Z 05008KT CAVOK 28/22 Q1009 NOSIG

Heure: 21:55 (01:55 UTC)

Prévision

Le bulletin a été fait il y a 2 heures et 40 minutes, à 23:15 UTC
Prévision valable du 18 à 00 UTC au 18 à 24 UTC
Vent 6 kt de est/nord-est
Visibilité 10 km ou plus
Nuages épars à une hauteur de 1800 ft
Temporairement
du 18 à 06 UTC au 18 à 13 UTC
Vent 3 kt de direction variable
Temporairement
du 18 à 13 UTC au 18 à 22 UTC
Nuages fragmentés à une hauteur de 1500 ft

TAF: TNCC 172315Z 1800/1824 06006KT 9999 SCT018 TEMPO 1806/1813 VRB03KT TEMPO 1813/1822 BKN015

Observations et prévisions météorologiques de plus de 4000 aéroports (messages METAR et TAF).

Les stations disponibles sont représentées par des disques jaunes et rouges sur la carte.

Passer la souris dessus pour voir le nom de la station.

Cliquer dessus pour voir les observations et prévisions météorologiques.

Pour changer de carte: cliquez sur les boutons verts avec une croix noire pour zoomer, sur le bouton vert avec un tiret pour effectuer un zoom arrière, ou sur les flèches vertes pour les cartes adjacentes.


METAR-TAF: